Georgy Maslov — D5BN4 — position and weather

sailwx.info

Track history (hours):
 
Tides and Currents Weather Stations Pressure Air Temp Water Temp Dewpoint Dewpoint Depression Visibility Wind Speed Wind Dir Waves Ship Positions

Georgy Maslov

Last reported at 2018-Feb-20 00:03 UTC. Time now 2018-Feb-20 02:14 UTC.
Position N 29°44' W 095°07'.

Length 250 m; draft 8.3 m.

Type: Ship. MMSI: 636015563.

Date/timePositionNaut miles runAvg speedWind from/ knotsBaromVisibWave heightAir tempDewpointWater temp
2018-Feb-20 00:03N 29°44' W 095°07'0 0.0
2018-Feb-19 23:54N 29°44' W 095°07'0 0.0
2018-Feb-19 23:27N 29°44' W 095°07'0 0.0
2018-Feb-19 23:00N 29°44' W 095°07'0 0.0
2018-Feb-19 22:27N 29°44' W 095°07'0 0.0
2018-Feb-19 22:00N 29°44' W 095°07'0 0.0
2018-Feb-19 21:24N 29°44' W 095°07'0 0.0
2018-Feb-19 20:48N 29°44' W 095°07'0 0.0
2018-Feb-19 20:27N 29°44' W 095°07'0 0.0
2018-Feb-19 20:00N 29°44' W 095°07'1 0.8
2018-Feb-19 18:39N 29°45' W 095°06'1 5.9
2018-Feb-19 18:30N 29°45' W 095°06'3 6.2
2018-Feb-19 18:00N 29°44' W 095°02'3 7.1
2018-Feb-19 17:31N 29°42' W 094°59'510.1
2018-Feb-19 17:00N 29°37' W 094°57'510.2
2018-Feb-19 16:30N 29°33' W 094°54'611.5
2018-Feb-19 16:00N 29°28' W 094°51'611.4
2018-Feb-19 15:30N 29°22' W 094°48'5 9.2
2018-Feb-19 14:59N 29°21' W 094°43'511.3
2018-Feb-19 14:30N 29°18' W 094°38'611.0
2018-Feb-19 14:00N 29°16' W 094°32'510.8
2018-Feb-19 13:30N 29°12' W 094°28'5 6.0
2018-Feb-19 12:37N 29°06' W 094°29'1 8.3
2018-Feb-19 12:30N 29°06' W 094°30'2 1.3
2018-Feb-19 11:09N 29°07' W 094°32'0 0.0
2018-Feb-19 10:39N 29°07' W 094°32'0 0.0
2018-Feb-19 10:30N 29°07' W 094°32'0 0.0
2018-Feb-19 09:57N 29°07' W 094°32'0 0.0
2018-Feb-19 09:24N 29°07' W 094°32'0 0.0
2018-Feb-19 08:57N 29°07' W 094°32'0 0.0
2018-Feb-19 08:21N 29°07' W 094°32'0 0.0
2018-Feb-19 07:57N 29°07' W 094°32'0 0.0
2018-Feb-19 07:30N 29°07' W 094°32'0 0.0
2018-Feb-19 06:57N 29°07' W 094°32'0 0.0
2018-Feb-19 06:30N 29°07' W 094°32'0 0.0
2018-Feb-19 06:00N 29°07' W 094°32'0 0.0
2018-Feb-19 05:24N 29°07' W 094°32'0 0.0
2018-Feb-19 05:00N 29°07' W 094°32'0 0.0
2018-Feb-19 03:33N 29°07' W 094°32'0 0.0
2018-Feb-18 08:48N 29°07' W 094°32'0 0.0
2018-Feb-18 08:30N 29°07' W 094°32'0 0.1
2018-Feb-18 08:00N 29°07' W 094°32'0 0.0
2018-Feb-18 07:30N 29°07' W 094°32'0 0.0
2018-Feb-18 06:57N 29°07' W 094°32'0 0.0
2018-Feb-18 06:09N 29°07' W 094°32'0 0.0
2018-Feb-18 05:48N 29°07' W 094°32'0 0.0
2018-Feb-18 05:30N 29°07' W 094°32'0 0.0
2018-Feb-18 05:00N 29°07' W 094°32'0 0.0
2018-Feb-18 03:21N 29°07' W 094°32'0 0.0
2018-Feb-17 10:27N 29°07' W 094°32'0 0.0
2018-Feb-17 06:51N 29°07' W 094°32'0 0.0
2018-Feb-17 06:30N 29°07' W 094°32'0 0.0
2018-Feb-17 05:57N 29°07' W 094°32'0 0.0
2018-Feb-17 05:30N 29°07' W 094°32'0 0.0
2018-Feb-17 05:00N 29°07' W 094°32'0 0.0
2018-Feb-17 04:30N 29°07' W 094°32'0 0.0
2018-Feb-17 03:42N 29°07' W 094°32'0 0.0
2018-Feb-17 03:30N 29°07' W 094°32'0 0.0
2018-Feb-17 02:54N 29°07' W 094°32'0 0.0
2018-Feb-17 02:30N 29°07' W 094°32'0 0.0
2018-Feb-17 01:54N 29°07' W 094°32'0 0.0
2018-Feb-17 01:21N 29°07' W 094°32'0 0.0
2018-Feb-17 00:54N 29°07' W 094°32'0 0.0
2018-Feb-17 00:30N 29°07' W 094°32'0 0.0
2018-Feb-17 00:00N 29°07' W 094°32'0 0.0
2018-Feb-16 23:18N 29°07' W 094°32'0 0.0
2018-Feb-16 22:54N 29°07' W 094°32'0 0.0
2018-Feb-16 21:27N 29°07' W 094°32'0 0.0
2018-Feb-16 15:03N 29°07' W 094°32'0 0.2
2018-Feb-16 14:57N 29°07' W 094°32'0 0.0
2018-Feb-16 04:33N 29°07' W 094°32'0 0.0
2018-Feb-16 04:27N 29°07' W 094°32'0 0.0
2018-Feb-15 09:30N 29°07' W 094°32'0 0.0
2018-Feb-14 18:54N 29°07' W 094°32'  
Track history (hours):
 
Tides and Currents Weather Stations Pressure Air Temp Water Temp Dewpoint Dewpoint Depression Visibility Wind Speed Wind Dir Waves Ship Positions

Georgy Maslov

Last reported at 2018-Feb-20 00:03 UTC. Time now 2018-Feb-20 02:14 UTC.
Position N 29°44' W 095°07'.

Length 250 m; draft 8.3 m.

Type: Ship. MMSI: 636015563.

Date/timePositionNaut miles runAvg speedWind from/ knotsBaromVisibWave heightAir tempDewpointWater temp
2018-Feb-20 00:03N 29°44' W 095°07'0 0.0
2018-Feb-19 23:54N 29°44' W 095°07'0 0.0
2018-Feb-19 23:27N 29°44' W 095°07'0 0.0
2018-Feb-19 23:00N 29°44' W 095°07'0 0.0
2018-Feb-19 22:27N 29°44' W 095°07'0 0.0
2018-Feb-19 22:00N 29°44' W 095°07'0 0.0
2018-Feb-19 21:24N 29°44' W 095°07'0 0.0
2018-Feb-19 20:48N 29°44' W 095°07'0 0.0
2018-Feb-19 20:27N 29°44' W 095°07'0 0.0
2018-Feb-19 20:00N 29°44' W 095°07'1 0.8
2018-Feb-19 18:39N 29°45' W 095°06'1 5.9
2018-Feb-19 18:30N 29°45' W 095°06'3 6.2
2018-Feb-19 18:00N 29°44' W 095°02'3 7.1
2018-Feb-19 17:31N 29°42' W 094°59'510.1
2018-Feb-19 17:00N 29°37' W 094°57'510.2
2018-Feb-19 16:30N 29°33' W 094°54'611.5
2018-Feb-19 16:00N 29°28' W 094°51'611.4
2018-Feb-19 15:30N 29°22' W 094°48'5 9.2
2018-Feb-19 14:59N 29°21' W 094°43'511.3
2018-Feb-19 14:30N 29°18' W 094°38'611.0
2018-Feb-19 14:00N 29°16' W 094°32'510.8
2018-Feb-19 13:30N 29°12' W 094°28'5 6.0
2018-Feb-19 12:37N 29°06' W 094°29'1 8.3
2018-Feb-19 12:30N 29°06' W 094°30'2 1.3
2018-Feb-19 11:09N 29°07' W 094°32'0 0.0
2018-Feb-19 10:39N 29°07' W 094°32'0 0.0
2018-Feb-19 10:30N 29°07' W 094°32'0 0.0
2018-Feb-19 09:57N 29°07' W 094°32'0 0.0
2018-Feb-19 09:24N 29°07' W 094°32'0 0.0
2018-Feb-19 08:57N 29°07' W 094°32'0 0.0
2018-Feb-19 08:21N 29°07' W 094°32'0 0.0
2018-Feb-19 07:57N 29°07' W 094°32'0 0.0
2018-Feb-19 07:30N 29°07' W 094°32'0 0.0
2018-Feb-19 06:57N 29°07' W 094°32'0 0.0
2018-Feb-19 06:30N 29°07' W 094°32'0 0.0
2018-Feb-19 06:00N 29°07' W 094°32'0 0.0
2018-Feb-19 05:24N 29°07' W 094°32'0 0.0
2018-Feb-19 05:00N 29°07' W 094°32'0 0.0
2018-Feb-19 03:33N 29°07' W 094°32'0 0.0
2018-Feb-18 08:48N 29°07' W 094°32'0 0.0
2018-Feb-18 08:30N 29°07' W 094°32'0 0.1
2018-Feb-18 08:00N 29°07' W 094°32'0 0.0
2018-Feb-18 07:30N 29°07' W 094°32'0 0.0
2018-Feb-18 06:57N 29°07' W 094°32'0 0.0
2018-Feb-18 06:09N 29°07' W 094°32'0 0.0
2018-Feb-18 05:48N 29°07' W 094°32'0 0.0
2018-Feb-18 05:30N 29°07' W 094°32'0 0.0
2018-Feb-18 05:00N 29°07' W 094°32'0 0.0
2018-Feb-18 03:21N 29°07' W 094°32'0 0.0
2018-Feb-17 10:27N 29°07' W 094°32'0 0.0
2018-Feb-17 06:51N 29°07' W 094°32'0 0.0
2018-Feb-17 06:30N 29°07' W 094°32'0 0.0
2018-Feb-17 05:57N 29°07' W 094°32'0 0.0
2018-Feb-17 05:30N 29°07' W 094°32'0 0.0
2018-Feb-17 05:00N 29°07' W 094°32'0 0.0
2018-Feb-17 04:30N 29°07' W 094°32'0 0.0
2018-Feb-17 03:42N 29°07' W 094°32'0 0.0
2018-Feb-17 03:30N 29°07' W 094°32'0 0.0
2018-Feb-17 02:54N 29°07' W 094°32'0 0.0
2018-Feb-17 02:30N 29°07' W 094°32'0 0.0
2018-Feb-17 01:54N 29°07' W 094°32'0 0.0
2018-Feb-17 01:21N 29°07' W 094°32'0 0.0
2018-Feb-17 00:54N 29°07' W 094°32'0 0.0
2018-Feb-17 00:30N 29°07' W 094°32'0 0.0
2018-Feb-17 00:00N 29°07' W 094°32'0 0.0
2018-Feb-16 23:18N 29°07' W 094°32'0 0.0
2018-Feb-16 22:54N 29°07' W 094°32'0 0.0
2018-Feb-16 21:27N 29°07' W 094°32'0 0.0
2018-Feb-16 15:03N 29°07' W 094°32'0 0.2
2018-Feb-16 14:57N 29°07' W 094°32'0 0.0
2018-Feb-16 04:33N 29°07' W 094°32'0 0.0
2018-Feb-16 04:27N 29°07' W 094°32'0 0.0
2018-Feb-15 09:30N 29°07' W 094°32'0 0.0
2018-Feb-14 18:54N 29°07' W 094°32'  

Dump ship's entire track history